Terminal Aerodrome Forecast
Issued by NWS

Home | Current Version | Previous Version | Text Only | Print | Product List | Glossary On
Versions: 1 2 3 4 5 6 7 8 9 10 11 12 13 14 15 16 17 18 19
772
FTUS45 KRIW 201421 AAB
TAFCPR
TAF AMD
KCPR 201421Z 2014/2112 07004KT 1/4SM FG VV002
     FM201500 08004KT 3/4SM BR BKN003
     FM201700 14010KT P6SM SCT070
     FM210800 23007KT P6SM FEW070 SCT200=

USA.gov is the U.S. government's official web portal to all federal, state and local government web resources and services.